Time;durP1;ratioP1;P1;durP2;ratioP2;P2;SDS_P1;SDS_P2;PMS_P1;PMS_P2;Temp;Humidity;BMP_temperature;BMP_pressure;BME280_temperature;BME280_humidity;BME280_pressure;Samples;Min_cycle;Max_cycle;Signal;HPM_P1;HPM_P2
2022/05/26 06:21:13;;;;;;;3.10;1.40;;;;;;;;;;7383028;19;20196;-77
2022/05/26 06:23:39;;;;;;;1.90;1.00;;;;;;;;;;7380605;19;20125;-77
2022/05/26 06:26:05;;;;;;;1.73;0.90;;;;;;;;;;7380220;19;20157;-80
2022/05/26 06:31:17;;;;;;;2.03;1.03;;;;;;;;;;7379192;19;20176;-77
2022/05/26 06:39:12;;;;;;;1.27;1.10;;;;;;;;;;7383396;19;20136;-77
2022/05/26 06:44:22;;;;;;;3.13;1.00;;;;;;;;;;7386712;19;20649;-79
2022/05/26 06:46:48;;;;;;;3.27;1.00;;;;;;;;;;7387836;19;20161;-77
2022/05/26 06:49:15;;;;;;;1.83;1.00;;;;;;;;;;7387462;19;20132;-76
2022/05/26 06:51:43;;;;;;;2.50;1.00;;;;;;;;;;7387913;19;20157;-76
2022/05/26 06:54:09;;;;;;;1.63;0.80;;;;;;;;;;7387550;19;20189;-77
2022/05/26 06:56:36;;;;;;;1.80;1.20;;;;;;;;;;7374717;19;22332;-79
2022/05/26 06:59:02;;;;;;;1.97;1.07;;;;;;;;;;7379862;19;20155;-77
2022/05/26 07:01:28;;;;;;;2.30;1.00;;;;;;;;;;7381683;19;20125;-79
2022/05/26 07:03:54;;;;;;;1.33;0.90;;;;;;;;;;7376786;19;20152;-77
2022/05/26 07:06:21;;;;;;;1.13;1.00;;;;;;;;;;7379235;19;20152;-78
2022/05/26 07:08:48;;;;;;;2.57;1.17;;;;;;;;;;7372302;19;20243;-77
2022/05/26 07:11:14;;;;;;;2.43;1.10;;;;;;;;;;7372184;19;20161;-77
2022/05/26 07:13:40;;;;;;;0.97;0.70;;;;;;;;;;7380713;19;20125;-77
2022/05/26 07:16:07;;;;;;;1.23;0.80;;;;;;;;;;7377077;19;20173;-79
2022/05/26 07:18:33;;;;;;;1.93;0.90;;;;;;;;;;7376800;19;20162;-79
2022/05/26 07:21:03;;;;;;;1.93;0.80;;;;;;;;;;7386507;19;20133;-79
2022/05/26 07:23:29;;;;;;;1.17;0.80;;;;;;;;;;7375527;19;20678;-79
2022/05/26 07:25:56;;;;;;;1.23;0.70;;;;;;;;;;7382870;19;20148;-80
2022/05/26 07:28:25;;;;;;;1.23;0.87;;;;;;;;;;7368603;19;20193;-80
2022/05/26 07:30:52;;;;;;;3.40;1.13;;;;;;;;;;7376349;19;20125;-78
2022/05/26 07:33:18;;;;;;;1.45;1.00;;;;;;;;;;7366534;19;20144;-79
2022/05/26 07:35:44;;;;;;;2.03;1.00;;;;;;;;;;7380804;19;20293;-78
2022/05/26 07:43:40;;;;;;;0.88;0.70;;;;;;;;;;7374316;19;20549;-79
2022/05/26 07:46:07;;;;;;;4.35;1.10;;;;;;;;;;7385382;19;20152;-79
2022/05/26 07:48:33;;;;;;;2.83;0.90;;;;;;;;;;7386548;19;20141;-78
2022/05/26 07:50:59;;;;;;;1.23;0.90;;;;;;;;;;7387226;19;20221;-78
2022/05/26 07:53:25;;;;;;;3.78;1.00;;;;;;;;;;7371872;19;20137;-77
2022/05/26 07:55:51;;;;;;;0.82;0.70;;;;;;;;;;7380715;19;20219;-80
2022/05/26 07:58:17;;;;;;;1.63;0.98;;;;;;;;;;7375819;19;20133;-80
2022/05/26 08:00:43;;;;;;;1.58;0.73;;;;;;;;;;7371218;19;20671;-78
2022/05/26 08:03:09;;;;;;;1.77;0.90;;;;;;;;;;7370696;19;20864;-78
2022/05/26 08:05:37;;;;;;;1.55;0.90;;;;;;;;;;7379345;19;20153;-77
2022/05/26 08:08:03;;;;;;;2.75;1.05;;;;;;;;;;7374100;19;20168;-78
2022/05/26 08:10:29;;;;;;;2.58;1.00;;;;;;;;;;7371703;19;20445;-78
2022/05/26 08:12:55;;;;;;;1.48;0.85;;;;;;;;;;7367104;19;20622;-78
2022/05/26 08:15:22;;;;;;;1.00;0.75;;;;;;;;;;7372653;19;20176;-77
2022/05/26 08:17:48;;;;;;;2.85;0.85;;;;;;;;;;7374245;19;20163;-78
2022/05/26 08:20:14;;;;;;;1.85;0.88;;;;;;;;;;7376013;19;20148;-78
2022/05/26 08:22:40;;;;;;;1.38;0.90;;;;;;;;;;7366032;19;20125;-77
2022/05/26 08:25:09;;;;;;;1.20;0.93;;;;;;;;;;7375151;19;20626;-78
2022/05/26 08:27:35;;;;;;;1.02;0.73;;;;;;;;;;7380347;19;20133;-78
2022/05/26 08:30:01;;;;;;;1.40;0.80;;;;;;;;;;7381970;19;20152;-81
2022/05/26 08:32:27;;;;;;;3.38;0.98;;;;;;;;;;7382040;19;20214;-78
2022/05/26 08:35:00;;;;;;;0.75;0.75;;;;;;;;;;7382610;19;20189;-78
2022/05/26 08:37:27;;;;;;;1.15;0.98;;;;;;;;;;7368510;19;20520;-79
2022/05/26 08:39:53;;;;;;;1.02;0.75;;;;;;;;;;7373368;19;20141;-76
2022/05/26 08:42:21;;;;;;;3.22;0.77;;;;;;;;;;7373065;19;20516;-78
2022/05/26 08:44:48;;;;;;;1.35;0.70;;;;;;;;;;7379013;19;20117;-78
2022/05/26 08:47:20;;;;;;;2.25;0.80;;;;;;;;;;7383737;19;20443;-78
2022/05/26 08:49:52;;;;;;;2.28;1.15;;;;;;;;;;7385536;19;20147;-75
2022/05/26 08:52:25;;;;;;;2.50;0.88;;;;;;;;;;7374015;19;20129;-76
2022/05/26 08:54:53;;;;;;;1.10;0.90;;;;;;;;;;7372817;19;20146;-75
2022/05/26 08:57:21;;;;;;;0.90;0.82;;;;;;;;;;7378966;19;20140;-76
2022/05/26 08:59:47;;;;;;;2.25;0.95;;;;;;;;;;7383636;19;20349;-78
2022/05/26 09:02:22;;;;;;;2.25;1.02;;;;;;;;;;7371807;19;20159;-77
2022/05/26 09:04:48;;;;;;;1.65;1.10;;;;;;;;;;7407960;19;20132;-80
2022/05/26 09:12:59;;;;;;;1.85;0.90;;;;;;;;;;7420575;19;20116;-79
2022/05/26 09:15:28;;;;;;;1.65;0.85;;;;;;;;;;7406749;19;20172;-77
2022/05/26 09:17:55;;;;;;;2.35;1.05;;;;;;;;;;7394514;19;20172;-78
2022/05/26 09:20:41;;;;;;;2.63;1.10;;;;;;;;;;7392985;19;20144;-78
2022/05/26 09:23:15;;;;;;;1.02;0.70;;;;;;;;;;7390909;19;20800;-78
2022/05/26 09:25:44;;;;;;;3.78;1.00;;;;;;;;;;7385147;19;20176;-79
2022/05/26 09:28:11;;;;;;;1.10;0.90;;;;;;;;;;7382405;19;20594;-79
2022/05/26 09:30:37;;;;;;;1.13;0.90;;;;;;;;;;7382555;19;20132;-79
2022/05/26 09:33:17;;;;;;;1.63;1.13;;;;;;;;;;7364165;19;20171;-79
2022/05/26 09:35:43;;;;;;;2.30;0.90;;;;;;;;;;7387966;19;20178;-79
2022/05/26 09:38:15;;;;;;;3.05;1.10;;;;;;;;;;7395395;19;20117;-79
2022/05/26 09:40:45;;;;;;;1.77;1.00;;;;;;;;;;7386561;19;20124;-79
2022/05/26 09:43:17;;;;;;;1.98;0.90;;;;;;;;;;7386890;19;20294;-78
2022/05/26 09:45:45;;;;;;;1.08;0.80;;;;;;;;;;7382525;19;20200;-79
2022/05/26 09:48:17;;;;;;;1.52;0.88;;;;;;;;;;7384288;19;20124;-79
2022/05/26 09:51:12;;;;;;;1.30;0.80;;;;;;;;;;7386004;19;20153;-80
2022/05/26 09:53:40;;;;;;;3.00;1.13;;;;;;;;;;7373477;19;20161;-78
2022/05/26 09:56:06;;;;;;;2.20;1.67;;;;;;;;;;7378911;19;20148;-79
2022/05/26 09:58:34;;;;;;;2.90;1.17;;;;;;;;;;7376067;19;20185;-80
2022/05/26 10:01:06;;;;;;;2.65;1.02;;;;;;;;;;7378367;19;20148;-79
2022/05/26 10:03:44;;;;;;;2.95;1.23;;;;;;;;;;7383584;19;20142;-79
2022/05/26 10:06:28;;;;;;;2.95;1.15;;;;;;;;;;7385659;19;20152;-79
2022/05/26 10:09:14;;;;;;;2.10;1.20;;;;;;;;;;7385703;19;20474;-79
2022/05/26 10:11:49;;;;;;;1.13;0.90;;;;;;;;;;7384328;19;20483;-80
2022/05/26 10:14:18;;;;;;;3.00;1.42;;;;;;;;;;7382698;19;20164;-80
2022/05/26 10:16:52;;;;;;;2.85;1.10;;;;;;;;;;7386288;19;20630;-79
2022/05/26 10:19:36;;;;;;;2.45;1.48;;;;;;;;;;7384791;19;20559;-80
2022/05/26 10:22:08;;;;;;;1.08;0.93;;;;;;;;;;7386056;19;20125;-79
2022/05/26 10:24:46;;;;;;;1.38;1.15;;;;;;;;;;7379411;19;20132;-79
2022/05/26 10:27:16;;;;;;;2.47;1.05;;;;;;;;;;7379157;19;20152;-79
2022/05/26 10:29:45;;;;;;;4.05;1.23;;;;;;;;;;7385223;19;20136;-79
2022/05/26 10:32:11;;;;;;;2.63;1.10;;;;;;;;;;7382379;19;20176;-79
2022/05/26 10:34:40;;;;;;;1.77;1.13;;;;;;;;;;7386862;19;20133;-79
2022/05/26 10:37:06;;;;;;;2.65;0.90;;;;;;;;;;7384537;19;20136;-80
2022/05/26 10:40:01;;;;;;;1.10;0.98;;;;;;;;;;7382311;19;20501;-79
2022/05/26 10:42:30;;;;;;;1.98;1.45;;;;;;;;;;7381046;19;20149;-79
2022/05/26 10:44:59;;;;;;;1.35;1.13;;;;;;;;;;7385893;19;20162;-79
2022/05/26 10:47:31;;;;;;;2.85;1.20;;;;;;;;;;7382025;19;20145;-79
2022/05/26 10:50:21;;;;;;;5.88;1.45;;;;;;;;;;7382300;19;20621;-79
2022/05/26 10:52:50;;;;;;;4.07;1.10;;;;;;;;;;7379162;19;20511;-79
2022/05/26 10:55:18;;;;;;;2.42;1.10;;;;;;;;;;7384527;19;20188;-78
2022/05/26 10:57:47;;;;;;;1.50;1.30;;;;;;;;;;7386469;19;20118;-79
2022/05/26 11:00:18;;;;;;;1.67;1.15;;;;;;;;;;7383025;19;20149;-80
2022/05/26 11:02:53;;;;;;;2.97;1.60;;;;;;;;;;7382814;19;20213;-79
2022/05/26 11:05:25;;;;;;;3.17;2.20;;;;;;;;;;7384319;19;20180;-79
2022/05/26 11:07:53;;;;;;;1.65;1.30;;;;;;;;;;7382420;19;20490;-79
2022/05/26 11:10:22;;;;;;;3.67;1.48;;;;;;;;;;7383282;19;20133;-79
2022/05/26 11:12:54;;;;;;;1.65;1.48;;;;;;;;;;7382402;19;20129;-79
2022/05/26 11:18:18;;;;;;;1.77;1.23;;;;;;;;;;7390992;19;20511;-80
2022/05/26 11:20:56;;;;;;;1.63;1.40;;;;;;;;;;7387400;19;20159;-79
2022/05/26 11:23:23;;;;;;;5.68;1.23;;;;;;;;;;7389221;19;20232;-79
2022/05/26 11:25:49;;;;;;;2.40;1.30;;;;;;;;;;7386999;19;20180;-79
2022/05/26 11:28:39;;;;;;;2.15;1.85;;;;;;;;;;7393633;19;20136;-79
2022/05/26 11:36:50;;;;;;;2.00;1.30;;;;;;;;;;7387733;19;20484;-79
2022/05/26 11:39:33;;;;;;;2.40;1.33;;;;;;;;;;7380255;19;20125;-79
2022/05/26 11:42:02;;;;;;;2.22;1.23;;;;;;;;;;7389818;19;20163;-78
2022/05/26 11:44:34;;;;;;;2.28;1.40;;;;;;;;;;7387786;19;20144;-78
2022/05/26 11:47:18;;;;;;;1.25;1.15;;;;;;;;;;7386349;19;20527;-79
2022/05/26 11:49:47;;;;;;;3.65;1.30;;;;;;;;;;7387551;19;20145;-78
2022/05/26 11:52:27;;;;;;;1.65;1.17;;;;;;;;;;7390941;19;20136;-79
2022/05/26 11:54:54;;;;;;;2.33;1.30;;;;;;;;;;7385355;19;20179;-79
2022/05/26 11:57:35;;;;;;;1.83;1.38;;;;;;;;;;7385637;19;20603;-79
2022/05/26 12:00:24;;;;;;;2.88;1.40;;;;;;;;;;7387391;19;20141;-79
2022/05/26 12:02:51;;;;;;;1.20;1.10;;;;;;;;;;7385608;19;20170;-79
2022/05/26 12:05:29;;;;;;;1.30;1.20;;;;;;;;;;7385569;19;20499;-79
2022/05/26 12:07:56;;;;;;;3.42;1.33;;;;;;;;;;7385048;19;20160;-79
2022/05/26 12:10:24;;;;;;;1.80;1.02;;;;;;;;;;7387807;19;20145;-79
2022/05/26 12:12:50;;;;;;;1.60;1.10;;;;;;;;;;7387199;19;20157;-79
2022/05/26 12:15:21;;;;;;;1.45;1.05;;;;;;;;;;7388410;19;20543;-78
2022/05/26 12:17:49;;;;;;;2.38;0.90;;;;;;;;;;7388680;19;20149;-78
2022/05/26 12:20:15;;;;;;;1.23;0.98;;;;;;;;;;7390528;19;20136;-78
2022/05/26 12:22:43;;;;;;;2.05;1.40;;;;;;;;;;7389199;19;20133;-78
2022/05/26 12:25:09;;;;;;;1.90;1.40;;;;;;;;;;7385571;19;20190;-79
2022/05/26 12:27:54;;;;;;;2.05;0.93;;;;;;;;;;7391581;19;20173;-79
2022/05/26 12:30:32;;;;;;;2.78;0.90;;;;;;;;;;7386339;19;20141;-79
2022/05/26 12:33:00;;;;;;;1.42;1.17;;;;;;;;;;7389120;19;20494;-79
2022/05/26 12:35:32;;;;;;;2.33;1.30;;;;;;;;;;7386637;19;20156;-78
2022/05/26 12:38:01;;;;;;;2.28;1.35;;;;;;;;;;7389745;19;20192;-78
2022/05/26 12:40:27;;;;;;;1.20;1.10;;;;;;;;;;7391768;19;20141;-79
2022/05/26 12:42:56;;;;;;;3.35;1.27;;;;;;;;;;7389575;19;20118;-79
2022/05/26 12:45:26;;;;;;;2.35;1.20;;;;;;;;;;7389660;19;20170;-79
2022/05/26 12:47:58;;;;;;;1.88;1.40;;;;;;;;;;7389289;19;20510;-79
2022/05/26 12:50:26;;;;;;;2.00;1.30;;;;;;;;;;7390099;19;20164;-79
2022/05/26 12:52:55;;;;;;;1.83;1.20;;;;;;;;;;7393560;19;20437;-79
2022/05/26 12:55:27;;;;;;;1.60;1.23;;;;;;;;;;7404301;19;20148;-79
2022/05/26 12:57:56;;;;;;;1.85;1.35;;;;;;;;;;7407738;19;20125;-79
2022/05/26 13:00:31;;;;;;;2.65;1.30;;;;;;;;;;7405885;19;20149;-79
2022/05/26 13:02:59;;;;;;;3.63;1.30;;;;;;;;;;7392809;19;20188;-80
2022/05/26 13:05:29;;;;;;;2.45;1.30;;;;;;;;;;7389870;19;20622;-79
2022/05/26 13:07:56;;;;;;;2.35;1.20;;;;;;;;;;7388474;19;20121;-79
2022/05/26 13:10:24;;;;;;;1.63;1.52;;;;;;;;;;7390676;19;20149;-80
2022/05/26 13:12:50;;;;;;;2.05;1.45;;;;;;;;;;7403279;19;20133;-79
2022/05/26 13:15:24;;;;;;;1.38;1.23;;;;;;;;;;7408645;19;20185;-80
2022/05/26 13:17:50;;;;;;;2.58;1.17;;;;;;;;;;7406468;19;20139;-80
2022/05/26 13:20:36;;;;;;;1.55;1.10;;;;;;;;;;7400814;19;20160;-80
2022/05/26 13:23:03;;;;;;;1.52;1.30;;;;;;;;;;7382744;19;20173;-79
2022/05/26 13:25:31;;;;;;;1.38;1.27;;;;;;;;;;7382902;19;20558;-79
2022/05/26 13:28:08;;;;;;;2.50;1.15;;;;;;;;;;7385703;19;20208;-79
2022/05/26 13:33:22;;;;;;;3.67;1.58;;;;;;;;;;7385387;19;20233;-79
2022/05/26 13:35:58;;;;;;;1.83;1.10;;;;;;;;;;7386332;19;20156;-79
2022/05/26 13:38:29;;;;;;;1.27;1.17;;;;;;;;;;7384605;19;20117;-79
2022/05/26 13:40:56;;;;;;;2.10;1.30;;;;;;;;;;7388574;19;20165;-79
2022/05/26 13:43:22;;;;;;;1.98;1.17;;;;;;;;;;7388183;19;20212;-79
2022/05/26 13:45:48;;;;;;;1.88;1.05;;;;;;;;;;7390345;19;20184;-79
2022/05/26 13:48:42;;;;;;;2.38;1.27;;;;;;;;;;7383617;19;20212;-79
2022/05/26 13:51:14;;;;;;;2.47;1.35;;;;;;;;;;7386688;19;20156;-80
2022/05/26 13:53:42;;;;;;;4.70;1.52;;;;;;;;;;7387048;19;20125;-80
2022/05/26 13:56:09;;;;;;;4.05;1.25;;;;;;;;;;7380142;19;20176;-79
2022/05/26 13:58:36;;;;;;;2.70;1.50;;;;;;;;;;7385226;19;20136;-80
2022/05/26 14:01:04;;;;;;;2.75;1.33;;;;;;;;;;7387872;19;20156;-80
2022/05/26 14:03:32;;;;;;;1.60;1.50;;;;;;;;;;7402996;19;20163;-80
2022/05/26 14:05:58;;;;;;;1.52;1.40;;;;;;;;;;7387955;19;20160;-79
2022/05/26 14:08:24;;;;;;;3.10;1.50;;;;;;;;;;7385769;19;20149;-79
2022/05/26 14:10:51;;;;;;;1.20;1.10;;;;;;;;;;7388236;19;20212;-80
2022/05/26 14:13:23;;;;;;;1.88;1.30;;;;;;;;;;7385678;19;20132;-80
2022/05/26 14:15:58;;;;;;;2.22;1.20;;;;;;;;;;7385703;19;20180;-80
2022/05/26 14:18:36;;;;;;;2.72;1.30;;;;;;;;;;7388585;19;20137;-80
2022/05/26 14:21:14;;;;;;;2.53;1.20;;;;;;;;;;7383904;19;20151;-80
2022/05/26 14:23:48;;;;;;;1.40;1.30;;;;;;;;;;7386668;19;20219;-80
2022/05/26 14:26:26;;;;;;;1.70;1.38;;;;;;;;;;7385395;19;20675;-80
2022/05/26 14:28:52;;;;;;;1.65;1.20;;;;;;;;;;7384984;19;20170;-80
2022/05/26 14:31:22;;;;;;;1.58;1.38;;;;;;;;;;7385358;19;20693;-80
2022/05/26 14:33:59;;;;;;;1.63;1.23;;;;;;;;;;7385768;19;20158;-80
2022/05/26 14:36:26;;;;;;;1.52;1.35;;;;;;;;;;7387993;19;20158;-79
2022/05/26 14:38:52;;;;;;;1.30;1.20;;;;;;;;;;7387005;19;20121;-80
2022/05/26 14:41:18;;;;;;;1.30;1.20;;;;;;;;;;7383000;19;20160;-80
2022/05/26 14:43:45;;;;;;;1.85;1.27;;;;;;;;;;7383119;19;20156;-80
2022/05/26 14:46:12;;;;;;;1.88;1.33;;;;;;;;;;7381666;19;20161;-80
2022/05/26 14:48:38;;;;;;;1.33;1.25;;;;;;;;;;7384328;19;20204;-80
2022/05/26 14:51:04;;;;;;;1.58;1.20;;;;;;;;;;7388665;19;20125;-79
2022/05/26 14:56:16;;;;;;;1.98;1.20;;;;;;;;;;7396285;19;20261;-81
2022/05/26 14:58:43;;;;;;;1.65;1.55;;;;;;;;;;7394858;19;20180;-80
2022/05/26 15:01:09;;;;;;;2.75;1.30;;;;;;;;;;7390822;19;20132;-80
2022/05/26 15:03:35;;;;;;;1.48;1.35;;;;;;;;;;7393989;19;20121;-80
2022/05/26 15:06:01;;;;;;;2.03;1.38;;;;;;;;;;7392812;19;20164;-79
2022/05/26 15:08:41;;;;;;;1.52;1.10;;;;;;;;;;7393592;19;20145;-79
2022/05/26 15:11:07;;;;;;;1.85;1.13;;;;;;;;;;7394078;19;20148;-79
2022/05/26 15:13:33;;;;;;;1.70;1.60;;;;;;;;;;7393931;19;20132;-80
2022/05/26 15:15:59;;;;;;;2.10;1.27;;;;;;;;;;7393466;19;20190;-80
2022/05/26 15:18:26;;;;;;;1.73;1.30;;;;;;;;;;7389173;19;20622;-80
2022/05/26 15:20:52;;;;;;;3.03;1.20;;;;;;;;;;7390200;19;20150;-80
2022/05/26 15:23:18;;;;;;;2.42;1.35;;;;;;;;;;7392644;19;20125;-80
2022/05/26 15:28:29;;;;;;;1.58;1.45;;;;;;;;;;7392920;19;20149;-80
2022/05/26 15:30:55;;;;;;;2.47;1.25;;;;;;;;;;7393945;19;20133;-80
2022/05/26 15:33:21;;;;;;;1.42;1.33;;;;;;;;;;7414223;19;20155;-81
2022/05/26 15:35:47;;;;;;;2.20;1.25;;;;;;;;;;7424262;19;20164;-81
2022/05/26 15:38:13;;;;;;;2.35;1.40;;;;;;;;;;7424968;19;20142;-81
2022/05/26 15:40:39;;;;;;;1.50;1.20;;;;;;;;;;7426947;19;20169;-80
2022/05/26 15:43:05;;;;;;;2.35;1.05;;;;;;;;;;7425247;19;20144;-80
2022/05/26 15:45:31;;;;;;;2.80;1.40;;;;;;;;;;7397865;19;20176;-79
2022/05/26 15:48:00;;;;;;;3.35;1.67;;;;;;;;;;7393151;19;20461;-79
2022/05/26 15:50:28;;;;;;;2.25;1.30;;;;;;;;;;7391369;19;20503;-79
2022/05/26 15:52:56;;;;;;;2.78;1.50;;;;;;;;;;7394319;19;20136;-80
2022/05/26 15:55:22;;;;;;;2.78;1.10;;;;;;;;;;7391799;19;20416;-79
2022/05/26 15:57:48;;;;;;;2.00;1.00;;;;;;;;;;7394807;19;20608;-80
2022/05/26 16:00:16;;;;;;;1.77;1.17;;;;;;;;;;7391579;19;20160;-79
2022/05/26 16:02:42;;;;;;;2.72;1.20;;;;;;;;;;7395559;19;20136;-80
2022/05/26 16:05:09;;;;;;;3.28;1.50;;;;;;;;;;7392784;19;20152;-79
2022/05/26 16:07:35;;;;;;;2.85;1.15;;;;;;;;;;7391960;19;20121;-80
2022/05/26 16:10:02;;;;;;;1.45;1.08;;;;;;;;;;7392223;19;20141;-80
2022/05/26 16:12:28;;;;;;;2.80;1.17;;;;;;;;;;7391641;19;20137;-80
2022/05/26 16:14:54;;;;;;;2.47;1.17;;;;;;;;;;7420668;19;20172;-80
2022/05/26 16:17:21;;;;;;;2.85;1.10;;;;;;;;;;7422318;19;20129;-80
2022/05/26 16:19:47;;;;;;;2.47;1.00;;;;;;;;;;7390196;19;20580;-80
2022/05/26 16:22:20;;;;;;;2.50;1.10;;;;;;;;;;7384192;19;20226;-80
2022/05/26 16:24:46;;;;;;;0.93;0.77;;;;;;;;;;7389053;19;20144;-80
2022/05/26 16:27:12;;;;;;;3.22;1.00;;;;;;;;;;7395573;19;20149;-80
2022/05/26 16:29:38;;;;;;;1.98;1.00;;;;;;;;;;7396247;19;20133;-80
2022/05/26 16:32:05;;;;;;;1.00;0.85;;;;;;;;;;7397070;19;20125;-80
2022/05/26 16:34:31;;;;;;;1.98;0.90;;;;;;;;;;7396550;19;20127;-80
2022/05/26 16:36:57;;;;;;;2.70;1.23;;;;;;;;;;7387829;19;20292;-80
2022/05/26 16:39:24;;;;;;;1.85;0.93;;;;;;;;;;7391071;19;20149;-80
2022/05/26 16:41:50;;;;;;;1.20;1.10;;;;;;;;;;7391611;19;20165;-80
2022/05/26 16:44:17;;;;;;;1.65;1.13;;;;;;;;;;7390544;19;20148;-80
2022/05/26 16:46:43;;;;;;;1.10;1.00;;;;;;;;;;7389539;19;20174;-80
2022/05/26 16:49:09;;;;;;;3.20;1.33;;;;;;;;;;7392665;19;20199;-80
2022/05/26 16:51:38;;;;;;;1.55;1.17;;;;;;;;;;7390621;19;20176;-80
2022/05/26 16:54:04;;;;;;;1.73;0.93;;;;;;;;;;7388752;19;20517;-81
2022/05/26 16:56:31;;;;;;;2.13;1.08;;;;;;;;;;7387282;19;20700;-80
2022/05/26 16:59:00;;;;;;;3.03;1.25;;;;;;;;;;7389861;19;20217;-80
2022/05/26 17:01:26;;;;;;;4.10;2.05;;;;;;;;;;7388696;19;20148;-81
2022/05/26 17:03:53;;;;;;;1.58;1.15;;;;;;;;;;7389757;19;20505;-80
2022/05/26 17:06:21;;;;;;;3.88;2.45;;;;;;;;;;7388286;19;20579;-79
2022/05/26 17:08:47;;;;;;;2.33;1.10;;;;;;;;;;7390840;19;20133;-79
2022/05/26 17:11:13;;;;;;;2.42;1.30;;;;;;;;;;7388253;19;20148;-78
2022/05/26 17:21:55;;;;;;;2.50;1.33;;;;;;;;;;7388492;19;20140;-78
2022/05/26 17:24:22;;;;;;;1.27;1.17;;;;;;;;;;7387565;19;20136;-80
2022/05/26 17:26:48;;;;;;;2.17;1.02;;;;;;;;;;7387202;19;20176;-78
2022/05/26 17:29:15;;;;;;;1.75;1.00;;;;;;;;;;7386492;19;20148;-78
2022/05/26 17:31:41;;;;;;;1.48;1.10;;;;;;;;;;7386637;19;20133;-80
2022/05/26 17:34:08;;;;;;;1.73;1.10;;;;;;;;;;7385492;19;20221;-78
2022/05/26 17:36:36;;;;;;;1.83;1.30;;;;;;;;;;7383006;19;20648;-78
2022/05/26 17:39:03;;;;;;;1.92;1.52;;;;;;;;;;7384565;19;20153;-79
2022/05/26 17:41:36;;;;;;;2.67;1.38;;;;;;;;;;7386865;19;20166;-79
2022/05/26 17:44:06;;;;;;;2.28;1.20;;;;;;;;;;7380609;19;20125;-79
2022/05/26 17:46:33;;;;;;;2.70;1.70;;;;;;;;;;7383583;19;20236;-79
2022/05/26 17:48:59;;;;;;;3.42;1.50;;;;;;;;;;7383901;19;20183;-80
2022/05/26 17:51:26;;;;;;;2.45;1.35;;;;;;;;;;7386456;19;20156;-79
2022/05/26 17:53:53;;;;;;;3.25;1.40;;;;;;;;;;7385534;19;20162;-79
2022/05/26 17:56:20;;;;;;;2.08;1.40;;;;;;;;;;7385761;19;20639;-79
2022/05/26 17:58:46;;;;;;;2.22;1.23;;;;;;;;;;7386762;19;20709;-79
2022/05/26 18:01:12;;;;;;;1.42;1.10;;;;;;;;;;7389373;19;20218;-79
2022/05/26 18:03:42;;;;;;;2.28;1.27;;;;;;;;;;7387300;19;20223;-79
2022/05/26 18:06:08;;;;;;;1.80;1.40;;;;;;;;;;7383836;19;20152;-79
2022/05/26 18:08:39;;;;;;;2.42;1.15;;;;;;;;;;7389664;19;20120;-79
2022/05/26 18:11:05;;;;;;;2.40;1.40;;;;;;;;;;7388593;19;20128;-79
2022/05/26 18:13:32;;;;;;;2.65;1.00;;;;;;;;;;7388637;19;20133;-79
2022/05/26 18:15:59;;;;;;;1.42;1.25;;;;;;;;;;7387309;19;20164;-80
2022/05/26 18:18:26;;;;;;;3.25;1.48;;;;;;;;;;7389570;19;20125;-79
2022/05/26 18:20:52;;;;;;;4.30;1.60;;;;;;;;;;7410252;19;20192;-79
2022/05/26 18:23:20;;;;;;;1.67;1.40;;;;;;;;;;7418485;19;20144;-79
2022/05/26 18:25:46;;;;;;;2.33;1.23;;;;;;;;;;7418930;19;20606;-79
